YSWG/WGA METAR and TAF weather

Enter ICAO airport designator
Station Type Date Time Source
YSWG METAR 2021/03/03 20:00 UTC NOAA

YSWG 032000Z AUTO 00000KT 9999 // NCD 07/03 Q1015


Station Type Date Time Source
YSWG Decoded METAR 2021/03/03 20:00 UTC NOAA

Wagga Airport, Australia (YSWG) 35-09S 147-27E 213M
Mar 03, 2021 - 03:00 PM EST / 2021.03.03 2000 UTC
Wind: Calm:0
Visibility: greater than 7 mile(s):0
Temperature: 44 F (7 C)
Dew Point: 37 F (3 C)
Relative Humidity: 75%
Pressure (altimeter): 29.97 in. Hg (1015 hPa)
ob: YSWG 032000Z AUTO 00000KT 9999 // NCD 07/03 Q1015
cycle: 20

Station Type Date Time Source
YSWG TAF 2018/05/25 18:03 UTC NOAA

TAF YSWG 251649Z 2518/2608 07008KT CAVOK

Example: see airport list